Decoded Metar for PAGA (GALENA in AK, USA) (IATA:GAL) | Meteo·Mobile Aviation Weather
aviador You're here:

PAGA Decoded Metar

GALENA in AK, USA
Report Time2019-01-20 10:46:00
UTC Time2019-01-20 11:02:27
Flight Rules vfr VFR
WindCalm
Visibility9999 m
Phenomena:N/A
Clouds:Scattered 025 Hf
Broken 095 Hf
Expected CloudBase > 1,200 ft AGL from Temp-Dew spread
Ceiling9,500 ft
Temp-30°C (ISA -45)
Dew Point-33°C (75% RH)
AAT-33.9°C
QNH1019 hPa
Density Alt-5,922 ft
Elevation151 ft
Report Wrong Elevation
Raw Report
PAGA 201046Z AUTO 00000KT 10SM SCT025 BKN095 M30/M33 A3009 RMK AO2
FZRANO=

Extra information for PAGA:More info

Metar Taf Metar & Taf Last 4 Metars F.Rules Stats Wind Profile Meteogram Temp Stats Airport Information Weather charts Add Link Nearby VenuesMetar ALERT Operation Metar Decoded Social comments

AIRNAV info for PAGA